sensor_id;sensor_type;location;lat;lon;timestamp;P1;P2;P0
74440;PMS7003;62870;54.692;25.284;2022-09-09T00:04:35;1;0.6;0.6
74440;PMS7003;62870;54.692;25.284;2022-09-09T00:08:51;0.6;0.6;0.6
74440;PMS7003;62870;54.692;25.284;2022-09-09T00:14:00;1;0.8;0.6
74440;PMS7003;62870;54.692;25.284;2022-09-09T00:18:29;1.4;1;0.8
74440;PMS7003;62870;54.692;25.284;2022-09-09T00:23:21;1.5;1.5;1.3
74440;PMS7003;62870;54.692;25.284;2022-09-09T00:33:39;1.2;1;1
74440;PMS7003;62870;54.692;25.284;2022-09-09T00:38:24;1.6;1;1
74440;PMS7003;62870;54.692;25.284;2022-09-09T00:43:55;2;1.6;1.4
74440;PMS7003;62870;54.692;25.284;2022-09-09T00:48:54;1.2;1.2;1.2
74440;PMS7003;62870;54.692;25.284;2022-09-09T00:53:51;1.4;1.2;1
74440;PMS7003;62870;54.692;25.284;2022-09-09T00:58:37;2.4;1.6;1.4
74440;PMS7003;62870;54.692;25.284;2022-09-09T01:03:52;2;1.6;1.2
74440;PMS7003;62870;54.692;25.284;2022-09-09T01:08:41;1.6;1.6;1.6
74440;PMS7003;62870;54.692;25.284;2022-09-09T01:13:21;1.8;1.2;1.2
74440;PMS7003;62870;54.692;25.284;2022-09-09T01:19:01;2.2;2;1.6
74440;PMS7003;62870;54.692;25.284;2022-09-09T01:24:10;2;1.8;1.5
74440;PMS7003;62870;54.692;25.284;2022-09-09T01:28:59;1.6;1.4;0.8
74440;PMS7003;62870;54.692;25.284;2022-09-09T01:33:17;1.4;1.2;1.2
74440;PMS7003;62870;54.692;25.284;2022-09-09T01:39:01;1.8;1.8;1.2
74440;PMS7003;62870;54.692;25.284;2022-09-09T01:44:01;1.2;1.2;1
74440;PMS7003;62870;54.692;25.284;2022-09-09T01:48:37;1.8;1.6;1.2
74440;PMS7003;62870;54.692;25.284;2022-09-09T01:53:18;2.8;1.8;1.2
74440;PMS7003;62870;54.692;25.284;2022-09-09T01:58:43;1.6;1.2;1
74440;PMS7003;62870;54.692;25.284;2022-09-09T02:03:23;1.8;1.8;1.6
74440;PMS7003;62870;54.692;25.284;2022-09-09T02:08:20;1.6;1.6;1.6
74440;PMS7003;62870;54.692;25.284;2022-09-09T02:13:20;1.4;1.2;1
74440;PMS7003;62870;54.692;25.284;2022-09-09T02:19:20;1.8;1.6;1
74440;PMS7003;62870;54.692;25.284;2022-09-09T02:23:49;1.5;1.3;1.3
74440;PMS7003;62870;54.692;25.284;2022-09-09T02:28:39;2;1.4;1
74440;PMS7003;62870;54.692;25.284;2022-09-09T02:34:01;2.2;1.4;1
74440;PMS7003;62870;54.692;25.284;2022-09-09T02:38:47;1.6;1.2;1
74440;PMS7003;62870;54.692;25.284;2022-09-09T02:43:51;2;1.6;1.6
74440;PMS7003;62870;54.692;25.284;2022-09-09T02:48:34;1.8;1.4;1.2
74440;PMS7003;62870;54.692;25.284;2022-09-09T02:53:21;1.8;1.8;1.6
74440;PMS7003;62870;54.692;25.284;2022-09-09T02:59:04;2.2;1.4;1.4
74440;PMS7003;62870;54.692;25.284;2022-09-09T03:03:51;1.6;1.4;1
74440;PMS7003;62870;54.692;25.284;2022-09-09T03:08:31;2;1.8;1.6
74440;PMS7003;62870;54.692;25.284;2022-09-09T03:13:51;2.2;1.8;1.6
74440;PMS7003;62870;54.692;25.284;2022-09-09T03:18:49;2;2;1.2
74440;PMS7003;62870;54.692;25.284;2022-09-09T03:23:39;1.4;1.2;1.2
74440;PMS7003;62870;54.692;25.284;2022-09-09T03:28:19;1.8;1.8;1.8
74440;PMS7003;62870;54.692;25.284;2022-09-09T03:34:03;1.6;1.4;1
74440;PMS7003;62870;54.692;25.284;2022-09-09T03:38:27;2.4;2.2;1.8
74440;PMS7003;62870;54.692;25.284;2022-09-09T03:43:29;2.2;1.8;1.6
74440;PMS7003;62870;54.692;25.284;2022-09-09T03:49:03;3;2.2;1.8
74440;PMS7003;62870;54.692;25.284;2022-09-09T03:54:01;2.6;2.6;1.6
74440;PMS7003;62870;54.692;25.284;2022-09-09T03:58:51;2.6;2.2;1.8
74440;PMS7003;62870;54.692;25.284;2022-09-09T04:03:30;2.2;1.6;1.4
74440;PMS7003;62870;54.692;25.284;2022-09-09T04:08:27;2.4;2;1.4
74440;PMS7003;62870;54.692;25.284;2022-09-09T04:13:51;3.2;2;1.6
74440;PMS7003;62870;54.692;25.284;2022-09-09T04:19:03;2.6;2.2;1.8
74440;PMS7003;62870;54.692;25.284;2022-09-09T04:23:28;3.2;2;1.8
74440;PMS7003;62870;54.692;25.284;2022-09-09T04:28:20;4.5;4;2.8
74440;PMS7003;62870;54.692;25.284;2022-09-09T04:33:39;4.4;3.6;2.6
74440;PMS7003;62870;54.692;25.284;2022-09-09T04:38:29;2.6;2.2;2.2
74440;PMS7003;62870;54.692;25.284;2022-09-09T04:43:27;2;1.8;1.6
74440;PMS7003;62870;54.692;25.284;2022-09-09T04:48:41;5;4;3
74440;PMS7003;62870;54.692;25.284;2022-09-09T04:53:47;3.8;2.6;2.4
74440;PMS7003;62870;54.692;25.284;2022-09-09T04:59:05;3.4;2.6;2.2
74440;PMS7003;62870;54.692;25.284;2022-09-09T05:03:39;3;2.2;2
74440;PMS7003;62870;54.692;25.284;2022-09-09T05:09:05;2.8;2.8;2.6
74440;PMS7003;62870;54.692;25.284;2022-09-09T05:14:05;3.4;2.4;2
74440;PMS7003;62870;54.692;25.284;2022-09-09T05:18:19;3.4;2.6;1.8
74440;PMS7003;62870;54.692;25.284;2022-09-09T05:23:29;2.8;2.2;1.8
74440;PMS7003;62870;54.692;25.284;2022-09-09T05:28:29;2.2;2.2;2
74440;PMS7003;62870;54.692;25.284;2022-09-09T05:33:55;2.6;2.4;2
74440;PMS7003;62870;54.692;25.284;2022-09-09T05:38:55;2.5;1.8;1.5
74440;PMS7003;62870;54.692;25.284;2022-09-09T05:43:53;2.8;2;1.8
74440;PMS7003;62870;54.692;25.284;2022-09-09T05:48:53;2;2;1.6
74440;PMS7003;62870;54.692;25.284;2022-09-09T05:53:50;2.8;2.2;1.8
74440;PMS7003;62870;54.692;25.284;2022-09-09T05:58:40;2;1.2;1
74440;PMS7003;62870;54.692;25.284;2022-09-09T06:03:52;2.4;2.4;1.8
74440;PMS7003;62870;54.692;25.284;2022-09-09T06:08:19;1.4;1.2;1.2
74440;PMS7003;62870;54.692;25.284;2022-09-09T06:13:30;2;1.8;1.2
74440;PMS7003;62870;54.692;25.284;2022-09-09T06:18:51;1.8;1.4;1.2
74440;PMS7003;62870;54.692;25.284;2022-09-09T06:24:05;3.4;3.2;3
74440;PMS7003;62870;54.692;25.284;2022-09-09T06:28:53;1;1;1
74440;PMS7003;62870;54.692;25.284;2022-09-09T06:33:31;1.4;1;0.6
74440;PMS7003;62870;54.692;25.284;2022-09-09T06:38:39;1.3;1;1
74440;PMS7003;62870;54.692;25.284;2022-09-09T06:43:53;1.2;1.2;0.8
74440;PMS7003;62870;54.692;25.284;2022-09-09T06:49:08;1.8;1.2;1
74440;PMS7003;62870;54.692;25.284;2022-09-09T06:53:29;1.4;1.2;1
74440;PMS7003;62870;54.692;25.284;2022-09-09T06:58:20;0.6;0.6;0.2
74440;PMS7003;62870;54.692;25.284;2022-09-09T07:03:29;2.8;2;1.2
74440;PMS7003;62870;54.692;25.284;2022-09-09T07:08:19;1;0.6;0.6
74440;PMS7003;62870;54.692;25.284;2022-09-09T07:13:43;0.4;0.4;0.4
74440;PMS7003;62870;54.692;25.284;2022-09-09T07:18:43;0.4;0;0
74440;PMS7003;62870;54.692;25.284;2022-09-09T07:23:52;0.6;0.6;0.2
74440;PMS7003;62870;54.692;25.284;2022-09-09T07:29:09;0.2;0.2;0.2
74440;PMS7003;62870;54.692;25.284;2022-09-09T07:33:19;0.2;0;0
74440;PMS7003;62870;54.692;25.284;2022-09-09T07:39:09;0;0;0
74440;PMS7003;62870;54.692;25.284;2022-09-09T07:44:08;0.3;0.3;0.3
74440;PMS7003;62870;54.692;25.284;2022-09-09T07:48:19;0.4;0.4;0.4
74440;PMS7003;62870;54.692;25.284;2022-09-09T07:53:29;0.8;0.2;0.2
74440;PMS7003;62870;54.692;25.284;2022-09-09T07:58:20;0.4;0.4;0.4
74440;PMS7003;62870;54.692;25.284;2022-09-09T08:03:44;0;0;0
74440;PMS7003;62870;54.692;25.284;2022-09-09T08:08:53;0.6;0;0
74440;PMS7003;62870;54.692;25.284;2022-09-09T08:13:56;1.2;0.8;0.6
74440;PMS7003;62870;54.692;25.284;2022-09-09T08:18:55;0.2;0.2;0.2
74440;PMS7003;62870;54.692;25.284;2022-09-09T08:23:52;0.6;0.6;0.4
74440;PMS7003;62870;54.692;25.284;2022-09-09T08:28:19;1.2;0.6;0.4
74440;PMS7003;62870;54.692;25.284;2022-09-09T08:33:54;0;0;0
74440;PMS7003;62870;54.692;25.284;2022-09-09T08:39:08;0;0;0
74440;PMS7003;62870;54.692;25.284;2022-09-09T08:43:29;0.4;0;0
74440;PMS7003;62870;54.692;25.284;2022-09-09T08:48:37;0.2;0.2;0
74440;PMS7003;62870;54.692;25.284;2022-09-09T08:54:11;0.2;0.2;0
74440;PMS7003;62870;54.692;25.284;2022-09-09T08:59:00;0;0;0
74440;PMS7003;62870;54.692;25.284;2022-09-09T09:04:13;0.2;0;0
74440;PMS7003;62870;54.692;25.284;2022-09-09T09:08:46;0.6;0.2;0
74440;PMS7003;62870;54.692;25.284;2022-09-09T09:14:14;0.2;0;0
74440;PMS7003;62870;54.692;25.284;2022-09-09T09:19:12;1;0.2;0
74440;PMS7003;62870;54.692;25.284;2022-09-09T09:23:42;0;0;0
74440;PMS7003;62870;54.692;25.284;2022-09-09T09:28:39;0.4;0.2;0.2
74440;PMS7003;62870;54.692;25.284;2022-09-09T09:33:29;1;1;0.8
74440;PMS7003;62870;54.692;25.284;2022-09-09T09:38:24;0.6;0.4;0
74440;PMS7003;62870;54.692;25.284;2022-09-09T09:43:52;1;1;1
74440;PMS7003;62870;54.692;25.284;2022-09-09T09:48:41;1;0.2;0
74440;PMS7003;62870;54.692;25.284;2022-09-09T09:54:09;1;0.6;0.2
74440;PMS7003;62870;54.692;25.284;2022-09-09T09:58:51;0.4;0.4;0.4
74440;PMS7003;62870;54.692;25.284;2022-09-09T10:03:49;1;0.8;0.8
74440;PMS7003;62870;54.692;25.284;2022-09-09T10:09:17;0.2;0.2;0.2
74440;PMS7003;62870;54.692;25.284;2022-09-09T10:13:53;1;0.8;0.4
74440;PMS7003;62870;54.692;25.284;2022-09-09T10:19:46;1;1;0.4
74440;PMS7003;62870;54.692;25.284;2022-09-09T10:24:05;1.2;0.8;0.4
74440;PMS7003;62870;54.692;25.284;2022-09-09T10:28:38;1.6;1;0.8
74440;PMS7003;62870;54.692;25.284;2022-09-09T10:34:10;0.8;0.6;0.4
74440;PMS7003;62870;54.692;25.284;2022-09-09T10:38:53;0.6;0.6;0.6
74440;PMS7003;62870;54.692;25.284;2022-09-09T10:49:02;1.6;1.2;1.2
74440;PMS7003;62870;54.692;25.284;2022-09-09T10:53:56;0.8;0.8;0.8
74440;PMS7003;62870;54.692;25.284;2022-09-09T10:58:39;1.8;1.2;0.8
74440;PMS7003;62870;54.692;25.284;2022-09-09T11:03:53;1.3;1;0.8
74440;PMS7003;62870;54.692;25.284;2022-09-09T11:09:14;1.4;1;0.8
74440;PMS7003;62870;54.692;25.284;2022-09-09T11:13:22;1;1;1
74440;PMS7003;62870;54.692;25.284;2022-09-09T11:18:29;1;0.8;0.8
74440;PMS7003;62870;54.692;25.284;2022-09-09T11:24:06;0.6;0.4;0.4
74440;PMS7003;62870;54.692;25.284;2022-09-09T11:29:09;0.8;0.8;0.8
74440;PMS7003;62870;54.692;25.284;2022-09-09T11:38:45;0.8;0.5;0.5
74440;PMS7003;62870;54.692;25.284;2022-09-09T11:44:17;0.3;0.3;0.3
74440;PMS7003;62870;54.692;25.284;2022-09-09T11:49:06;0.8;0.8;0.8
74440;PMS7003;62870;54.692;25.284;2022-09-09T11:53:29;1.8;1.4;1.2
74440;PMS7003;62870;54.692;25.284;2022-09-09T11:58:53;0.8;0.6;0.6
74440;PMS7003;62870;54.692;25.284;2022-09-09T12:03:46;0.8;0.8;0.4
74440;PMS7003;62870;54.692;25.284;2022-09-09T12:08:21;0.6;0.6;0.2
74440;PMS7003;62870;54.692;25.284;2022-09-09T12:13:39;0.4;0.4;0.2
74440;PMS7003;62870;54.692;25.284;2022-09-09T12:18:41;1.2;1.2;1.2
74440;PMS7003;62870;54.692;25.284;2022-09-09T12:23:52;1.4;1.4;1.2
74440;PMS7003;62870;54.692;25.284;2022-09-09T12:28:52;0.8;0.5;0.5
74440;PMS7003;62870;54.692;25.284;2022-09-09T12:33:24;1;0.6;0.6
74440;PMS7003;62870;54.692;25.284;2022-09-09T12:38:51;1.4;1;1
74440;PMS7003;62870;54.692;25.284;2022-09-09T12:44:05;0.8;0.8;0.8
74440;PMS7003;62870;54.692;25.284;2022-09-09T12:49:18;1.4;1.2;1
74440;PMS7003;62870;54.692;25.284;2022-09-09T12:53:21;1.6;1.4;1
74440;PMS7003;62870;54.692;25.284;2022-09-09T12:58:30;1;0.8;0.6
74440;PMS7003;62870;54.692;25.284;2022-09-09T13:03:20;1.8;1.2;1
74440;PMS7003;62870;54.692;25.284;2022-09-09T13:08:31;1.8;1.2;1
74440;PMS7003;62870;54.692;25.284;2022-09-09T13:13:52;1;0.8;0.6
74440;PMS7003;62870;54.692;25.284;2022-09-09T13:18:55;1.2;1;0.8
74440;PMS7003;62870;54.692;25.284;2022-09-09T13:23:57;1;1;0.8
74440;PMS7003;62870;54.692;25.284;2022-09-09T13:28:45;1.5;1.3;1
74440;PMS7003;62870;54.692;25.284;2022-09-09T13:33:51;1.4;1.4;1
74440;PMS7003;62870;54.692;25.284;2022-09-09T13:38:54;1;0.8;0.4
74440;PMS7003;62870;54.692;25.284;2022-09-09T13:43:20;1.4;1.4;1.2
74440;PMS7003;62870;54.692;25.284;2022-09-09T13:48:29;0.8;0.6;0.6
74440;PMS7003;62870;54.692;25.284;2022-09-09T13:53:19;1;0.8;0.6
74440;PMS7003;62870;54.692;25.284;2022-09-09T13:59:08;0.6;0.6;0.4
74440;PMS7003;62870;54.692;25.284;2022-09-09T14:03:54;1.4;1.4;1.4
74440;PMS7003;62870;54.692;25.284;2022-09-09T14:08:21;2.2;1.2;1
74440;PMS7003;62870;54.692;25.284;2022-09-09T14:13:19;1.6;1.6;1.2
74440;PMS7003;62870;54.692;25.284;2022-09-09T14:19:00;1.6;0.8;0.6
74440;PMS7003;62870;54.692;25.284;2022-09-09T14:24:09;0.8;0.8;0.6
74440;PMS7003;62870;54.692;25.284;2022-09-09T14:28:38;2.8;1.3;1
74440;PMS7003;62870;54.692;25.284;2022-09-09T14:33:50;1;1;0.8
74440;PMS7003;62870;54.692;25.284;2022-09-09T14:38:32;1.6;0.6;0.6
74440;PMS7003;62870;54.692;25.284;2022-09-09T14:43:30;1.8;1.4;1
74440;PMS7003;62870;54.692;25.284;2022-09-09T14:48:44;0.4;0.2;0
74440;PMS7003;62870;54.692;25.284;2022-09-09T14:53:44;1;0.6;0.6
74440;PMS7003;62870;54.692;25.284;2022-09-09T14:58:50;1.2;1;0.8
74440;PMS7003;62870;54.692;25.284;2022-09-09T15:03:55;1.4;0.8;0.4
74440;PMS7003;62870;54.692;25.284;2022-09-09T15:08:42;0.8;0.4;0
74440;PMS7003;62870;54.692;25.284;2022-09-09T15:14:06;1;0.6;0.4
74440;PMS7003;62870;54.692;25.284;2022-09-09T15:19:08;1.2;0.8;0.8
74440;PMS7003;62870;54.692;25.284;2022-09-09T15:23:31;2.2;1.8;1.6
74440;PMS7003;62870;54.692;25.284;2022-09-09T15:28:31;1.3;1.3;1
74440;PMS7003;62870;54.692;25.284;2022-09-09T15:33:20;1.8;1.6;1
74440;PMS7003;62870;54.692;25.284;2022-09-09T15:39:06;2;1.8;1.6
74440;PMS7003;62870;54.692;25.284;2022-09-09T15:43:52;2.4;1.6;1
74440;PMS7003;62870;54.692;25.284;2022-09-09T15:49:05;1.8;0.8;0.4
74440;PMS7003;62870;54.692;25.284;2022-09-09T15:53:57;1.4;0.8;0.8
74440;PMS7003;62870;54.692;25.284;2022-09-09T15:58:46;1;0.8;0.8
74440;PMS7003;62870;54.692;25.284;2022-09-09T16:03:39;2.2;1.6;1.2
74440;PMS7003;62870;54.692;25.284;2022-09-09T16:08:52;2;1.4;1
74440;PMS7003;62870;54.692;25.284;2022-09-09T16:13:20;1;0.8;0.8
74440;PMS7003;62870;54.692;25.284;2022-09-09T16:18:20;1.2;1.2;1
74440;PMS7003;62870;54.692;25.284;2022-09-09T16:23:30;1.4;1;1
74440;PMS7003;62870;54.692;25.284;2022-09-09T16:29:06;2;1.5;1.3
74440;PMS7003;62870;54.692;25.284;2022-09-09T16:33:54;1.2;1.2;1
74440;PMS7003;62870;54.692;25.284;2022-09-09T16:38:30;2;0.8;0.8
74440;PMS7003;62870;54.692;25.284;2022-09-09T16:43:20;2.4;1.8;1.4
74440;PMS7003;62870;54.692;25.284;2022-09-09T16:48:56;1.8;1.3;1
74440;PMS7003;62870;54.692;25.284;2022-09-09T16:54:06;2;1.6;1.2
74440;PMS7003;62870;54.692;25.284;2022-09-09T16:58:30;1.6;1.6;1.4
74440;PMS7003;62870;54.692;25.284;2022-09-09T17:03:20;2;2;2
74440;PMS7003;62870;54.692;25.284;2022-09-09T17:08:30;2.2;2.2;1.8
74440;PMS7003;62870;54.692;25.284;2022-09-09T17:13:31;2;1.6;1.6
74440;PMS7003;62870;54.692;25.284;2022-09-09T17:18:44;3;2.4;1.8
74440;PMS7003;62870;54.692;25.284;2022-09-09T17:23:32;2.5;2.5;2
74440;PMS7003;62870;54.692;25.284;2022-09-09T17:28:52;3.6;2.8;2.2
74440;PMS7003;62870;54.692;25.284;2022-09-09T17:34:07;4;3.6;2.6
74440;PMS7003;62870;54.692;25.284;2022-09-09T17:38:42;4;2.8;2.4
74440;PMS7003;62870;54.692;25.284;2022-09-09T17:43:54;3.8;3.2;2.4
74440;PMS7003;62870;54.692;25.284;2022-09-09T17:48:55;3.4;3.4;2.8
74440;PMS7003;62870;54.692;25.284;2022-09-09T17:54:09;3.6;3.2;2.4
74440;PMS7003;62870;54.692;25.284;2022-09-09T17:58:30;3.2;2.8;2.4
74440;PMS7003;62870;54.692;25.284;2022-09-09T18:04:00;2.8;2.8;2.4
74440;PMS7003;62870;54.692;25.284;2022-09-09T18:09:11;3.2;2.6;2.4
74440;PMS7003;62870;54.692;25.284;2022-09-09T18:13:54;5;4;3.2
74440;PMS7003;62870;54.692;25.284;2022-09-09T18:18:44;3.2;2.8;2.2
74440;PMS7003;62870;54.692;25.284;2022-09-09T18:23:46;3.5;3;2
74440;PMS7003;62870;54.692;25.284;2022-09-09T18:28:55;3.6;3.6;3.2
74440;PMS7003;62870;54.692;25.284;2022-09-09T18:33:38;4.2;3.6;2.8
74440;PMS7003;62870;54.692;25.284;2022-09-09T18:38:36;4.4;3.8;3.2
74440;PMS7003;62870;54.692;25.284;2022-09-09T18:44:10;3.8;3.2;2.6
74440;PMS7003;62870;54.692;25.284;2022-09-09T18:48:20;4;3.6;3
74440;PMS7003;62870;54.692;25.284;2022-09-09T18:53:30;4.6;3.6;3
74440;PMS7003;62870;54.692;25.284;2022-09-09T18:59:06;3.2;2.8;2.2
74440;PMS7003;62870;54.692;25.284;2022-09-09T19:04:06;2.6;2.4;2.2
74440;PMS7003;62870;54.692;25.284;2022-09-09T19:09:04;5.4;4.4;3.4
74440;PMS7003;62870;54.692;25.284;2022-09-09T19:13:42;3.6;3.4;2.6
74440;PMS7003;62870;54.692;25.284;2022-09-09T19:19:04;4;3.8;3.2
74440;PMS7003;62870;54.692;25.284;2022-09-09T19:24:10;4.2;4.2;3.2
74440;PMS7003;62870;54.692;25.284;2022-09-09T19:28:38;3.8;3.5;2.8
74440;PMS7003;62870;54.692;25.284;2022-09-09T19:33:30;3.4;2.8;2
74440;PMS7003;62870;54.692;25.284;2022-09-09T19:38:28;5;4.4;3.4
74440;PMS7003;62870;54.692;25.284;2022-09-09T19:43:20;3.8;3.6;3
74440;PMS7003;62870;54.692;25.284;2022-09-09T19:48:40;4.2;3.8;3
74440;PMS7003;62870;54.692;25.284;2022-09-09T19:53:20;4.2;3.4;2.6
74440;PMS7003;62870;54.692;25.284;2022-09-09T19:59:08;3.6;3;2.4
74440;PMS7003;62870;54.692;25.284;2022-09-09T20:04:08;3.4;3.2;2.8
74440;PMS7003;62870;54.692;25.284;2022-09-09T20:08:43;4;3;2.4
74440;PMS7003;62870;54.692;25.284;2022-09-09T20:14:08;3.6;3;2.2
74440;PMS7003;62870;54.692;25.284;2022-09-09T20:18:53;3;2.4;2.4
74440;PMS7003;62870;54.692;25.284;2022-09-09T20:24:10;2.8;2;1.8
74440;PMS7003;62870;54.692;25.284;2022-09-09T20:28:18;2.6;2.4;1.8
74440;PMS7003;62870;54.692;25.284;2022-09-09T20:33:18;2.8;2;1.4
74440;PMS7003;62870;54.692;25.284;2022-09-09T20:39:09;2.6;2.2;1.8
74440;PMS7003;62870;54.692;25.284;2022-09-09T20:43:53;2.4;2.4;2
74440;PMS7003;62870;54.692;25.284;2022-09-09T20:48:42;2.4;2.2;1.6
74440;PMS7003;62870;54.692;25.284;2022-09-09T20:54:02;3.4;3;2.2
74440;PMS7003;62870;54.692;25.284;2022-09-09T20:58:54;3.8;2.8;1.8
74440;PMS7003;62870;54.692;25.284;2022-09-09T21:03:31;2.8;2.4;1.4
74440;PMS7003;62870;54.692;25.284;2022-09-09T21:08:46;2.4;1.8;1.2
74440;PMS7003;62870;54.692;25.284;2022-09-09T21:14:06;2.2;2.2;2
74440;PMS7003;62870;54.692;25.284;2022-09-09T21:18:20;1.6;1.6;1.6
74440;PMS7003;62870;54.692;25.284;2022-09-09T21:23:30;2;2;1.6
74440;PMS7003;62870;54.692;25.284;2022-09-09T21:29:08;3.3;2.3;1.5
74440;PMS7003;62870;54.692;25.284;2022-09-09T21:34:06;2.4;2;1.6
74440;PMS7003;62870;54.692;25.284;2022-09-09T21:39:06;2.2;1.8;1.8
74440;PMS7003;62870;54.692;25.284;2022-09-09T21:43:44;2.2;1.6;1.4
74440;PMS7003;62870;54.692;25.284;2022-09-09T21:49:08;2.2;2.2;1.8
74440;PMS7003;62870;54.692;25.284;2022-09-09T21:54:06;2.4;2.2;1.4
74440;PMS7003;62870;54.692;25.284;2022-09-09T21:58:38;3;2.4;1.8
74440;PMS7003;62870;54.692;25.284;2022-09-09T22:03:38;2.2;2;1.6
74440;PMS7003;62870;54.692;25.284;2022-09-09T22:08:30;2.6;2.2;1.6
74440;PMS7003;62870;54.692;25.284;2022-09-09T22:13:20;2.6;2.2;1.6
74440;PMS7003;62870;54.692;25.284;2022-09-09T22:18:20;3;1.8;1.6
74440;PMS7003;62870;54.692;25.284;2022-09-09T22:23:42;2;2;1.4
74440;PMS7003;62870;54.692;25.284;2022-09-09T22:28:52;2.3;2;1.5
74440;PMS7003;62870;54.692;25.284;2022-09-09T22:33:44;1.6;1.6;1.4
74440;PMS7003;62870;54.692;25.284;2022-09-09T22:39:08;1.8;1.8;1.4
74440;PMS7003;62870;54.692;25.284;2022-09-09T22:43:42;2.2;2;1
74440;PMS7003;62870;54.692;25.284;2022-09-09T22:48:50;2.2;1.8;1.4
74440;PMS7003;62870;54.692;25.284;2022-09-09T22:54:06;2;1.8;1.2
74440;PMS7003;62870;54.692;25.284;2022-09-09T22:58:36;1.4;1;0.8
74440;PMS7003;62870;54.692;25.284;2022-09-09T23:03:30;3.2;2.2;1.6
74440;PMS7003;62870;54.692;25.284;2022-09-09T23:08:29;2.8;2.2;1.6
74440;PMS7003;62870;54.692;25.284;2022-09-09T23:14:05;2;1.6;1.4
74440;PMS7003;62870;54.692;25.284;2022-09-09T23:18:54;3.4;2.8;1.8
74440;PMS7003;62870;54.692;25.284;2022-09-09T23:23:58;3.2;2.8;2
74440;PMS7003;62870;54.692;25.284;2022-09-09T23:28:58;2.8;2.5;2.3
74440;PMS7003;62870;54.692;25.284;2022-09-09T23:33:34;3.8;3;2.2
74440;PMS7003;62870;54.692;25.284;2022-09-09T23:38:28;3;2.4;2
74440;PMS7003;62870;54.692;25.284;2022-09-09T23:43:38;2.4;2;1.8
74440;PMS7003;62870;54.692;25.284;2022-09-09T23:48:28;2.2;2.2;1.8
74440;PMS7003;62870;54.692;25.284;2022-09-09T23:53:30;3.4;2.6;2.2
74440;PMS7003;62870;54.692;25.284;2022-09-09T23:58:54;4;3.6;2.2
